Cape Town, South Africa

12:24 AM SAST on August 31, 2014 (GMT +0200)
Monte Vista | Change Station
CLOSE
Current Station
Personal Weather Station
Location: Cape Town, WESTERN CAPE
Elevation: 150 ft
Nearby Weather Stations

Elev 150 ft 33.88 °S, 18.56 °E | Updated 39 seconds ago

Clear
Clear
56.3 °F
Feels Like 56.3 °F
N
0.7
Wind Variable Wind from East
Gusts 3.8 mph

Today
High -- | Low -- °F
--% Chance of Precip.
Yesterday
High -- | Low -- °F
Precip. -- in
7:05 AM 6:26 PM
Waxing Crescent, 25% visible
Pressure 30.27 in
Visibility -9999.0 miles
Clouds
Dew Point 51 °F
Humidity 83%
Rainfall 0.00 in
Snow Depth Not available.
UV Not available.
Pollen Not available.
Air Quality Not available.
Flu Activity Not available.
METAR FACT 302200Z 26003KT CAVOK 13/08 Q1025 NOSIG

More Conditions Fewer Conditions

Pressure 30.27 in
Visibility -9999.0 miles
Clouds
Dew Point 51 °F
Humidity 83%
Rainfall 0.00 in
Snow Depth Not available.
UV Not available.
Pollen Not available.
Air Quality Not available.
Flu Activity Not available.
METAR FACT 302200Z 26003KT CAVOK 13/08 Q1025 NOSIG

More Conditions Fewer Conditions

10-Day Weather Forecast

Almanac

Astronomy

Aug. 31, 2014 Rise Set
Actual Time 7:05 AM SAST 6:26 PM SAST
Civil Twilight 6:40 AM SAST 6:52 PM SAST
Nautical Twilight 6:11 AM SAST 7:21 PM SAST
Astronomical Twilight 5:42 AM SAST 7:50 PM SAST
Moon 10:12 AM SAST (8/31) 11:58 PM SAST (8/31)
Length of Visible Light 12h 11m
Length of Day
11h 21m
Tomorrow will be 2m 0s longer.
Waxing Crescent, 25% of the Moon is Illuminated
Aug 30
Waxing Crescent
Sep 2
First Quarter
Sep 8
Full
Sep 15
Last Quarter
Sep 24
New

Yesterday's Extremes

Country Highs Country Lows

Community

WunderPhotos

Upload Photos

1,748,657 photos uploaded!

WunderBlogs® & News

Nearby

Snow Depth

Not available.

Earthquake Activity

City Distance Mag. Time & Date
No recent earthquake activity has been reported nearby.
Minimum magnitude displayed is 2.5.

Coastal Water Temperatures

Place Temperature
No Stations Reporting

Nearby Weather Stations